Airfield :







YOU CAN JOIN US ON...

 
LOGIN :

Register | Disclaimer

   EN    FR    IT 

 









Legend :    VFR   Marginal VFR   IFR   Intensive IFR   Very Intensive IFR
Visi :
Ceiling :
>= 8 km
>= 3000ft
5 to 8 km
1000 to 3000 ft
1500m to 5 km
500 to 1000 ft
800 to 1500m
200 to 500 ft
< 800m
< 200 ft
Symbols :   Thunderstorms  Fog  Heavy snow  Heavy precipitations  Wind > 20 kt







- Airport Elevation : 90 ft
- IATA code : YHU


CYHU - Montréal Saint-Hubert

CURRENT METAR :
  • 160100Z AUTO 28010KT 9SM OVC055 15/09 A3007 RMK SLP183

EXPIRED METARs :
  • 160038Z AUTO 28009G15KT 9SM FEW042 OVC050 15/09 A3006 RMK SLP181
  • 160027Z AUTO 28008KT 9SM -RA FEW036 OVC050 15/09 A3006 RMK SLP180
  • 160000Z AUTO 27009KT 9SM FEW036 BKN043 OVC055 16/09 A3005 RMK SLP179
  • 152300Z AUTO 28011G17KT 9SM OVC055 16/08 A3005 RMK SLP178

TAF TAF CYHU
Valid from the 16 at 00:00 until the 17 at 00:00 UTC


152338Z 1600/1624 26010G20KT P6SM BKN050
TEMPO 1602/1606 FEW050
BECMG 1602/1604 28008KT
FM160600 30006KT P6SM FEW050
BECMG 1614/1616 27010KT
FM162000 29012KT P6SM SCT050
BECMG 1622/1624 34009KT RMK FCST BASED ON AUTO OBS. NXT FCST BY 160600Z
No reported NOTAMs for that airfield.



MET'MAP, your aeronautical weather chart ! - Copyright ORBIFLY December 2007 - Disclaimer

ORBIFLY MET'MAP TEAM :

Programming & Development : Alexandra Zaïnal
Concept & Development : Baudouin d'Aumeries
Co-Development & Prog : Marc-Olivier Méhu
Technical & hardware support : Manuel Goepfert

Contact : metmap@orbifly.com




SOURCES & CREDITS :

   NOAA